100LL.CA
Aviation Fuel Pricing for Canadians
Please upgrade your browser - Tested with IE9, FireFox, Chrome, Safari

Fuel Airports Other Help
Prices Economy Info List METAR/TAF Kneeboard Help

Reference Airport: DAWSON CITY, YT
N 64 02 31.787  W 139 07 48.250
Provinces to show:

CYDA DAWSON CITY, YT
WEATHER
METARCYDA 221400Z 00000KT 20SM FEW130 09/06 A2983 RMK AC1 FU SLP113
TAFTAF CYDA 221440Z 2215/2303 VRB03KT P6SM FEW060 SCT120 FM222100 VRB03KT P6SM SCT050 TEMPO 2221/2303 VRB15G25KT P6SM VCTS BKN050CB RMK NXT FCST BY 222100Z
OTHER SITES

FlightAware

FltPlan

Google Maps

SkyVector
FUEL
FBO 100LL
member
100LL
public
JETA MOGAS
Opr (2021-09-03)2.0591.430
Canada Flight Supplement - CYDA
(opens in new tab/window)


Please Send Updates!

Desktop Version ]  [ Mobile Version ]  [ Disclaimer ]